F.r. Bigelow — WDB8153 — position and weather

sailwx.info

Track history (hours):
 
Tides and Currents Weather Stations Pressure Air Temp Water Temp Dewpoint Dewpoint Depression Visibility Wind Speed Wind Dir Waves Ship Positions

F.r. Bigelow

Owner: INGRAM BARGE COMPANY, Nashville, TN. More information available from US FCC via Universal Licensing System and Coast Guard Vessel Documentation Center.

Last reported at 2014-Oct-21 07:29 UTC. Time now 2014-Oct-21 10:23 UTC.
Position N 30°20' W 091°09'.

Length 46 m; draft 2.7 m.

Type: Tow > 200 m length. MMSI: 366953890.

Date/timePositionNaut miles runAvg speedWind from/ knotsBaromVisibWave heightAir tempDewpointWater temp
2014-Oct-21 07:29N 30°20' W 091°09'3 2.7
2014-Oct-21 06:24N 30°19' W 091°13'2 2.7
2014-Oct-21 05:31N 30°17' W 091°12'26 2.0
2014-Oct-20 16:30N 29°60' W 090°50'17 3.4
2014-Oct-20 11:31N 30°03' W 090°31'2 1.5
2014-Oct-20 10:14N 30°03' W 090°29'16 4.9
2014-Oct-20 07:05N 29°55' W 090°13'4 4.2
2014-Oct-20 06:11N 29°55' W 090°08'22 0.5
2014-Oct-18 12:31N 30°03' W 090°32'41 1.4
2014-Oct-17 08:04N 29°38' W 089°55'1 2.3
2014-Oct-17 07:33N 29°37' W 089°54'35 0.8
2014-Oct-15 13:17N 29°59' W 090°25'0 0.3
2014-Oct-15 12:33N 29°59' W 090°25'1 0.8
2014-Oct-15 11:32N 29°59' W 090°24'4 3.8
2014-Oct-15 10:31N 29°56' W 090°20'5 4.2
2014-Oct-15 09:15N 29°58' W 090°15'3 4.2
2014-Oct-15 08:28N 29°55' W 090°13'4 1.9
2014-Oct-15 06:29N 29°56' W 090°08'8 0.2
2014-Oct-13 10:11N 29°58' W 090°17'4 6.4
2014-Oct-13 09:32N 29°56' W 090°21'5 5.2
2014-Oct-13 08:33N 29°60' W 090°25'5 4.9
2014-Oct-13 07:33N 30°03' W 090°29'2 1.6
2014-Oct-13 06:33N 30°03' W 090°31'0 0.0
2014-Oct-13 05:33N 30°03' W 090°31'0 0.0
2014-Oct-13 04:33N 30°03' W 090°31'3 2.5
2014-Oct-13 03:33N 30°03' W 090°34'5 5.4
2014-Oct-13 02:33N 30°03' W 090°40'5 5.4
2014-Oct-13 01:33N 30°01' W 090°46'4 3.2
2014-Oct-13 00:27N 30°01' W 090°50'  
Track history (hours):
 
Tides and Currents Weather Stations Pressure Air Temp Water Temp Dewpoint Dewpoint Depression Visibility Wind Speed Wind Dir Waves Ship Positions

F.r. Bigelow

Owner: INGRAM BARGE COMPANY, Nashville, TN. More information available from US FCC via Universal Licensing System and Coast Guard Vessel Documentation Center.

Last reported at 2014-Oct-21 07:29 UTC. Time now 2014-Oct-21 10:23 UTC.
Position N 30°20' W 091°09'.

Length 46 m; draft 2.7 m.

Type: Tow > 200 m length. MMSI: 366953890.

Date/timePositionNaut miles runAvg speedWind from/ knotsBaromVisibWave heightAir tempDewpointWater temp
2014-Oct-21 07:29N 30°20' W 091°09'3 2.7
2014-Oct-21 06:24N 30°19' W 091°13'2 2.7
2014-Oct-21 05:31N 30°17' W 091°12'26 2.0
2014-Oct-20 16:30N 29°60' W 090°50'17 3.4
2014-Oct-20 11:31N 30°03' W 090°31'2 1.5
2014-Oct-20 10:14N 30°03' W 090°29'16 4.9
2014-Oct-20 07:05N 29°55' W 090°13'4 4.2
2014-Oct-20 06:11N 29°55' W 090°08'22 0.5
2014-Oct-18 12:31N 30°03' W 090°32'41 1.4
2014-Oct-17 08:04N 29°38' W 089°55'1 2.3
2014-Oct-17 07:33N 29°37' W 089°54'35 0.8
2014-Oct-15 13:17N 29°59' W 090°25'0 0.3
2014-Oct-15 12:33N 29°59' W 090°25'1 0.8
2014-Oct-15 11:32N 29°59' W 090°24'4 3.8
2014-Oct-15 10:31N 29°56' W 090°20'5 4.2
2014-Oct-15 09:15N 29°58' W 090°15'3 4.2
2014-Oct-15 08:28N 29°55' W 090°13'4 1.9
2014-Oct-15 06:29N 29°56' W 090°08'8 0.2
2014-Oct-13 10:11N 29°58' W 090°17'4 6.4
2014-Oct-13 09:32N 29°56' W 090°21'5 5.2
2014-Oct-13 08:33N 29°60' W 090°25'5 4.9
2014-Oct-13 07:33N 30°03' W 090°29'2 1.6
2014-Oct-13 06:33N 30°03' W 090°31'0 0.0
2014-Oct-13 05:33N 30°03' W 090°31'0 0.0
2014-Oct-13 04:33N 30°03' W 090°31'3 2.5
2014-Oct-13 03:33N 30°03' W 090°34'5 5.4
2014-Oct-13 02:33N 30°03' W 090°40'5 5.4
2014-Oct-13 01:33N 30°01' W 090°46'4 3.2
2014-Oct-13 00:27N 30°01' W 090°50'  

Dump ship's entire track history